sensor_id;sensor_type;location;lat;lon;timestamp;pressure;altitude;pressure_sealevel;temperature;humidity
59110;BME280;44895;47.438;18.978;2022-11-30T00:02:09;100725.84;;;3.41;100.00
59110;BME280;44895;47.438;18.978;2022-11-30T00:05:14;100723.16;;;3.41;100.00
59110;BME280;44895;47.438;18.978;2022-11-30T00:08:18;100719.06;;;3.50;100.00
59110;BME280;44895;47.438;18.978;2022-11-30T00:11:23;100715.69;;;3.55;100.00
59110;BME280;44895;47.438;18.978;2022-11-30T00:14:27;100722.56;;;3.51;100.00
59110;BME280;44895;47.438;18.978;2022-11-30T00:17:31;100733.41;;;3.44;100.00
59110;BME280;44895;47.438;18.978;2022-11-30T00:20:36;100723.50;;;3.45;100.00
59110;BME280;44895;47.438;18.978;2022-11-30T00:23:43;100714.16;;;3.47;100.00
59110;BME280;44895;47.438;18.978;2022-11-30T00:26:48;100719.19;;;3.43;100.00
59110;BME280;44895;47.438;18.978;2022-11-30T00:29:52;100724.13;;;3.28;100.00
59110;BME280;44895;47.438;18.978;2022-11-30T00:32:56;100724.44;;;3.38;100.00
59110;BME280;44895;47.438;18.978;2022-11-30T00:36:03;100710.88;;;3.45;100.00
59110;BME280;44895;47.438;18.978;2022-11-30T00:39:07;100717.31;;;3.56;100.00
59110;BME280;44895;47.438;18.978;2022-11-30T00:42:12;100713.38;;;3.58;100.00
59110;BME280;44895;47.438;18.978;2022-11-30T00:45:16;100727.59;;;3.47;100.00
59110;BME280;44895;47.438;18.978;2022-11-30T00:48:20;100729.09;;;3.43;100.00
59110;BME280;44895;47.438;18.978;2022-11-30T00:51:24;100722.69;;;3.56;100.00
59110;BME280;44895;47.438;18.978;2022-11-30T00:54:28;100722.00;;;3.61;100.00
59110;BME280;44895;47.438;18.978;2022-11-30T00:57:34;100726.66;;;3.53;100.00
59110;BME280;44895;47.438;18.978;2022-11-30T01:00:40;100731.34;;;3.58;100.00
59110;BME280;44895;47.438;18.978;2022-11-30T01:03:45;100723.53;;;3.56;100.00
59110;BME280;44895;47.438;18.978;2022-11-30T01:06:50;100728.06;;;3.56;100.00
59110;BME280;44895;47.438;18.978;2022-11-30T01:09:59;100738.81;;;3.56;100.00
59110;BME280;44895;47.438;18.978;2022-11-30T01:13:03;100735.31;;;3.55;100.00
59110;BME280;44895;47.438;18.978;2022-11-30T01:16:11;100730.09;;;3.72;100.00
59110;BME280;44895;47.438;18.978;2022-11-30T01:19:16;100731.34;;;3.58;100.00
59110;BME280;44895;47.438;18.978;2022-11-30T01:22:19;100730.78;;;3.68;100.00
59110;BME280;44895;47.438;18.978;2022-11-30T01:25:23;100735.09;;;3.69;100.00
59110;BME280;44895;47.438;18.978;2022-11-30T01:28:27;100731.34;;;3.58;100.00
59110;BME280;44895;47.438;18.978;2022-11-30T01:31:31;100719.19;;;3.67;100.00
59110;BME280;44895;47.438;18.978;2022-11-30T01:34:35;100710.94;;;3.69;100.00
59110;BME280;44895;47.438;18.978;2022-11-30T01:37:39;100716.25;;;3.57;100.00
59110;BME280;44895;47.438;18.978;2022-11-30T01:40:53;100716.75;;;3.66;100.00
59110;BME280;44895;47.438;18.978;2022-11-30T01:47:11;100720.22;;;3.54;100.00
59110;BME280;44895;47.438;18.978;2022-11-30T01:50:24;100710.91;;;3.57;100.00
59110;BME280;44895;47.438;18.978;2022-11-30T01:53:30;100710.09;;;3.56;100.00
59110;BME280;44895;47.438;18.978;2022-11-30T01:56:40;100718.16;;;3.56;100.00
59110;BME280;44895;47.438;18.978;2022-11-30T01:59:51;100711.00;;;3.50;100.00
59110;BME280;44895;47.438;18.978;2022-11-30T02:03:18;100727.00;;;3.45;100.00
59110;BME280;44895;47.438;18.978;2022-11-30T02:06:27;100717.59;;;3.66;100.00
59110;BME280;44895;47.438;18.978;2022-11-30T02:09:38;100709.03;;;3.69;100.00
59110;BME280;44895;47.438;18.978;2022-11-30T02:19:54;100710.78;;;3.52;100.00
59110;BME280;44895;47.438;18.978;2022-11-30T02:27:01;100703.44;;;3.71;100.00
59110;BME280;44895;47.438;18.978;2022-11-30T02:30:15;100703.22;;;3.72;100.00
59110;BME280;44895;47.438;18.978;2022-11-30T02:33:25;100696.31;;;3.65;100.00
59110;BME280;44895;47.438;18.978;2022-11-30T02:36:31;100697.81;;;3.61;100.00
59110;BME280;44895;47.438;18.978;2022-11-30T02:39:39;100698.75;;;3.54;100.00
59110;BME280;44895;47.438;18.978;2022-11-30T02:42:43;100700.06;;;3.64;100.00
59110;BME280;44895;47.438;18.978;2022-11-30T02:46:09;100699.34;;;3.68;100.00
59110;BME280;44895;47.438;18.978;2022-11-30T02:49:31;100703.56;;;3.52;100.00
59110;BME280;44895;47.438;18.978;2022-11-30T02:52:37;100704.34;;;3.65;100.00
59110;BME280;44895;47.438;18.978;2022-11-30T02:55:42;100703.06;;;3.55;100.00
59110;BME280;44895;47.438;18.978;2022-11-30T02:58:46;100700.63;;;3.54;100.00
59110;BME280;44895;47.438;18.978;2022-11-30T03:01:51;100700.50;;;3.61;100.00
59110;BME280;44895;47.438;18.978;2022-11-30T03:04:55;100690.72;;;3.66;100.00
59110;BME280;44895;47.438;18.978;2022-11-30T03:07:59;100698.41;;;3.63;100.00
59110;BME280;44895;47.438;18.978;2022-11-30T03:11:04;100693.84;;;3.51;100.00
59110;BME280;44895;47.438;18.978;2022-11-30T03:14:08;100693.25;;;3.49;100.00
59110;BME280;44895;47.438;18.978;2022-11-30T03:17:14;100704.97;;;3.67;100.00
59110;BME280;44895;47.438;18.978;2022-11-30T03:20:19;100705.88;;;3.49;100.00
59110;BME280;44895;47.438;18.978;2022-11-30T03:23:26;100702.72;;;3.52;100.00
59110;BME280;44895;47.438;18.978;2022-11-30T03:26:34;100707.03;;;3.41;100.00
59110;BME280;44895;47.438;18.978;2022-11-30T03:29:38;100708.75;;;3.35;100.00
59110;BME280;44895;47.438;18.978;2022-11-30T03:32:44;100712.53;;;3.46;100.00
59110;BME280;44895;47.438;18.978;2022-11-30T03:35:58;100720.00;;;3.44;100.00
59110;BME280;44895;47.438;18.978;2022-11-30T03:39:06;100719.84;;;3.39;100.00
59110;BME280;44895;47.438;18.978;2022-11-30T03:42:13;100712.88;;;3.50;100.00
59110;BME280;44895;47.438;18.978;2022-11-30T03:45:18;100706.81;;;3.54;100.00
59110;BME280;44895;47.438;18.978;2022-11-30T03:48:23;100708.31;;;3.50;100.00
59110;BME280;44895;47.438;18.978;2022-11-30T03:51:27;100696.28;;;3.41;100.00
59110;BME280;44895;47.438;18.978;2022-11-30T03:54:32;100712.88;;;3.50;100.00
59110;BME280;44895;47.438;18.978;2022-11-30T03:57:36;100703.44;;;3.47;100.00
59110;BME280;44895;47.438;18.978;2022-11-30T04:00:45;100707.28;;;3.51;100.00
59110;BME280;44895;47.438;18.978;2022-11-30T04:03:52;100706.91;;;3.48;100.00
59110;BME280;44895;47.438;18.978;2022-11-30T04:06:59;100703.66;;;3.57;100.00
59110;BME280;44895;47.438;18.978;2022-11-30T04:10:03;100710.56;;;3.65;100.00
59110;BME280;44895;47.438;18.978;2022-11-30T04:13:12;100698.75;;;3.54;100.00
59110;BME280;44895;47.438;18.978;2022-11-30T04:16:17;100705.75;;;3.67;100.00
59110;BME280;44895;47.438;18.978;2022-11-30T04:19:21;100698.53;;;3.68;100.00
59110;BME280;44895;47.438;18.978;2022-11-30T04:22:31;100707.72;;;3.48;100.00
59110;BME280;44895;47.438;18.978;2022-11-30T04:25:39;100707.53;;;3.62;100.00
59110;BME280;44895;47.438;18.978;2022-11-30T04:28:43;100699.47;;;3.50;100.00
59110;BME280;44895;47.438;18.978;2022-11-30T04:31:51;100702.03;;;3.56;100.00
59110;BME280;44895;47.438;18.978;2022-11-30T04:34:57;100706.78;;;3.42;100.00
59110;BME280;44895;47.438;18.978;2022-11-30T04:38:03;100706.78;;;3.42;100.00
59110;BME280;44895;47.438;18.978;2022-11-30T04:41:08;100708.22;;;3.57;100.00
59110;BME280;44895;47.438;18.978;2022-11-30T04:44:12;100718.75;;;3.58;100.00
59110;BME280;44895;47.438;18.978;2022-11-30T04:47:16;100716.81;;;3.35;100.00
59110;BME280;44895;47.438;18.978;2022-11-30T04:50:20;100711.13;;;3.55;100.00
59110;BME280;44895;47.438;18.978;2022-11-30T04:53:26;100703.88;;;3.56;100.00
59110;BME280;44895;47.438;18.978;2022-11-30T04:56:30;100705.66;;;3.62;100.00
59110;BME280;44895;47.438;18.978;2022-11-30T04:59:35;100705.44;;;3.64;100.00
59110;BME280;44895;47.438;18.978;2022-11-30T05:03:03;100704.34;;;3.53;100.00
59110;BME280;44895;47.438;18.978;2022-11-30T05:06:07;100720.59;;;3.58;100.00
59110;BME280;44895;47.438;18.978;2022-11-30T05:09:11;100710.41;;;3.48;100.00
59110;BME280;44895;47.438;18.978;2022-11-30T05:12:15;100716.38;;;3.62;100.00
59110;BME280;44895;47.438;18.978;2022-11-30T05:15:19;100710.69;;;3.70;100.00
59110;BME280;44895;47.438;18.978;2022-11-30T05:18:23;100715.56;;;3.50;100.00
59110;BME280;44895;47.438;18.978;2022-11-30T05:21:30;100723.16;;;3.53;100.00
59110;BME280;44895;47.438;18.978;2022-11-30T05:24:35;100719.06;;;3.50;100.00
59110;BME280;44895;47.438;18.978;2022-11-30T05:27:40;100717.91;;;3.58;100.00
59110;BME280;44895;47.438;18.978;2022-11-30T05:30:44;100719.75;;;3.46;100.00
59110;BME280;44895;47.438;18.978;2022-11-30T05:33:52;100727.84;;;3.57;100.00
59110;BME280;44895;47.438;18.978;2022-11-30T05:36:59;100726.81;;;3.58;100.00
59110;BME280;44895;47.438;18.978;2022-11-30T05:40:11;100722.47;;;3.57;100.00
59110;BME280;44895;47.438;18.978;2022-11-30T05:43:16;100728.66;;;3.70;100.00
59110;BME280;44895;47.438;18.978;2022-11-30T05:46:21;100722.78;;;3.49;100.00
59110;BME280;44895;47.438;18.978;2022-11-30T05:49:25;100725.84;;;3.65;100.00
59110;BME280;44895;47.438;18.978;2022-11-30T05:52:29;100726.31;;;3.62;100.00
59110;BME280;44895;47.438;18.978;2022-11-30T05:55:33;100724.44;;;3.62;100.00
59110;BME280;44895;47.438;18.978;2022-11-30T05:58:38;100725.97;;;3.58;100.00
59110;BME280;44895;47.438;18.978;2022-11-30T06:01:42;100728.78;;;3.63;100.00
59110;BME280;44895;47.438;18.978;2022-11-30T06:04:46;100727.84;;;3.57;100.00
59110;BME280;44895;47.438;18.978;2022-11-30T06:07:50;100730.31;;;3.71;100.00
59110;BME280;44895;47.438;18.978;2022-11-30T06:10:59;100738.59;;;3.57;100.00
59110;BME280;44895;47.438;18.978;2022-11-30T06:14:03;100738.00;;;3.55;100.00
59110;BME280;44895;47.438;18.978;2022-11-30T06:17:07;100743.28;;;3.74;100.00
59110;BME280;44895;47.438;18.978;2022-11-30T06:20:12;100748.66;;;3.74;100.00
59110;BME280;44895;47.438;18.978;2022-11-30T06:23:16;100747.16;;;3.78;100.00
59110;BME280;44895;47.438;18.978;2022-11-30T06:26:21;100761.63;;;3.77;100.00
59110;BME280;44895;47.438;18.978;2022-11-30T06:29:24;100747.50;;;3.82;100.00
59110;BME280;44895;47.438;18.978;2022-11-30T06:32:29;100756.72;;;3.74;100.00
59110;BME280;44895;47.438;18.978;2022-11-30T06:35:33;100757.09;;;3.78;100.00
59110;BME280;44895;47.438;18.978;2022-11-30T06:38:37;100764.56;;;3.87;100.00
59110;BME280;44895;47.438;18.978;2022-11-30T06:41:41;100770.16;;;3.74;100.00
59110;BME280;44895;47.438;18.978;2022-11-30T06:44:46;100764.78;;;3.86;100.00
59110;BME280;44895;47.438;18.978;2022-11-30T06:47:53;100763.94;;;3.73;100.00
59110;BME280;44895;47.438;18.978;2022-11-30T06:50:58;100766.31;;;3.82;100.00
59110;BME280;44895;47.438;18.978;2022-11-30T06:54:03;100761.38;;;3.79;100.00
59110;BME280;44895;47.438;18.978;2022-11-30T06:57:07;100764.09;;;4.02;100.00
59110;BME280;44895;47.438;18.978;2022-11-30T07:00:11;100764.22;;;3.96;100.00
59110;BME280;44895;47.438;18.978;2022-11-30T07:03:17;100766.31;;;3.94;100.00
59110;BME280;44895;47.438;18.978;2022-11-30T07:06:21;100764.09;;;4.02;100.00
59110;BME280;44895;47.438;18.978;2022-11-30T07:09:24;100757.91;;;4.02;100.00
59110;BME280;44895;47.438;18.978;2022-11-30T07:12:28;100761.66;;;4.01;100.00
59110;BME280;44895;47.438;18.978;2022-11-30T07:15:33;100761.19;;;4.04;100.00
59110;BME280;44895;47.438;18.978;2022-11-30T07:18:37;100755.69;;;4.11;100.00
59110;BME280;44895;47.438;18.978;2022-11-30T07:21:41;100749.00;;;4.37;100.00
59110;BME280;44895;47.438;18.978;2022-11-30T07:24:45;100742.25;;;4.22;100.00
59110;BME280;44895;47.438;18.978;2022-11-30T07:28:07;100753.91;;;4.40;100.00
59110;BME280;44895;47.438;18.978;2022-11-30T07:31:32;100761.97;;;4.28;100.00
59110;BME280;44895;47.438;18.978;2022-11-30T07:34:37;100755.34;;;4.31;100.00
59110;BME280;44895;47.438;18.978;2022-11-30T07:37:41;100760.94;;;4.41;100.00
59110;BME280;44895;47.438;18.978;2022-11-30T07:40:45;100751.31;;;4.57;100.00
59110;BME280;44895;47.438;18.978;2022-11-30T07:43:49;100753.06;;;4.63;100.00
59110;BME280;44895;47.438;18.978;2022-11-30T07:46:53;100751.88;;;4.71;100.00
59110;BME280;44895;47.438;18.978;2022-11-30T07:49:57;100750.75;;;4.55;100.00
59110;BME280;44895;47.438;18.978;2022-11-30T07:53:00;100749.88;;;4.78;100.00
59110;BME280;44895;47.438;18.978;2022-11-30T07:56:10;100760.88;;;4.77;100.00
59110;BME280;44895;47.438;18.978;2022-11-30T07:59:15;100765.22;;;4.78;100.00
59110;BME280;44895;47.438;18.978;2022-11-30T08:02:19;100758.13;;;5.00;100.00
59110;BME280;44895;47.438;18.978;2022-11-30T08:05:23;100757.56;;;4.86;100.00
59110;BME280;44895;47.438;18.978;2022-11-30T08:08:29;100758.44;;;5.04;100.00
59110;BME280;44895;47.438;18.978;2022-11-30T08:11:34;100759.16;;;4.99;100.00
59110;BME280;44895;47.438;18.978;2022-11-30T08:14:38;100761.56;;;5.13;100.00
59110;BME280;44895;47.438;18.978;2022-11-30T08:17:42;100760.59;;;4.90;100.00
59110;BME280;44895;47.438;18.978;2022-11-30T08:20:46;100758.81;;;4.96;100.00
59110;BME280;44895;47.438;18.978;2022-11-30T08:23:53;100759.88;;;5.23;100.00
59110;BME280;44895;47.438;18.978;2022-11-30T08:26:58;100742.75;;;5.30;100.00
59110;BME280;44895;47.438;18.978;2022-11-30T08:30:03;100748.78;;;5.37;100.00
59110;BME280;44895;47.438;18.978;2022-11-30T08:33:07;100740.16;;;5.35;100.00
59110;BME280;44895;47.438;18.978;2022-11-30T08:36:14;100738.22;;;5.47;100.00
59110;BME280;44895;47.438;18.978;2022-11-30T08:39:18;100740.97;;;5.35;100.00
59110;BME280;44895;47.438;18.978;2022-11-30T08:42:22;100734.63;;;5.59;100.00
59110;BME280;44895;47.438;18.978;2022-11-30T08:45:26;100735.91;;;5.39;100.00
59110;BME280;44895;47.438;18.978;2022-11-30T08:48:30;100731.44;;;5.45;100.00
59110;BME280;44895;47.438;18.978;2022-11-30T08:51:35;100738.59;;;5.56;100.00
59110;BME280;44895;47.438;18.978;2022-11-30T08:54:41;100738.63;;;5.73;100.00
59110;BME280;44895;47.438;18.978;2022-11-30T08:57:47;100745.72;;;5.62;100.00
59110;BME280;44895;47.438;18.978;2022-11-30T09:00:51;100741.56;;;5.54;100.00
59110;BME280;44895;47.438;18.978;2022-11-30T09:03:56;100735.53;;;5.47;100.00
59110;BME280;44895;47.438;18.978;2022-11-30T09:07:00;100738.56;;;5.68;100.00
59110;BME280;44895;47.438;18.978;2022-11-30T09:10:04;100752.06;;;5.56;100.00
59110;BME280;44895;47.438;18.978;2022-11-30T09:13:09;100750.00;;;5.75;100.00
59110;BME280;44895;47.438;18.978;2022-11-30T09:16:14;100748.25;;;5.52;100.00
59110;BME280;44895;47.438;18.978;2022-11-30T09:19:18;100746.88;;;5.83;100.00
59110;BME280;44895;47.438;18.978;2022-11-30T09:22:23;100749.41;;;5.73;100.00
59110;BME280;44895;47.438;18.978;2022-11-30T09:25:27;100742.31;;;5.67;100.00
59110;BME280;44895;47.438;18.978;2022-11-30T09:28:32;100750.00;;;5.75;100.00
59110;BME280;44895;47.438;18.978;2022-11-30T09:31:36;100748.25;;;5.86;100.00
59110;BME280;44895;47.438;18.978;2022-11-30T09:34:40;100748.53;;;6.01;100.00
59110;BME280;44895;47.438;18.978;2022-11-30T09:37:44;100751.69;;;6.15;100.00
59110;BME280;44895;47.438;18.978;2022-11-30T09:40:53;100738.78;;;5.83;100.00
59110;BME280;44895;47.438;18.978;2022-11-30T09:50:43;100737.00;;;6.06;100.00
59110;BME280;44895;47.438;18.978;2022-11-30T09:53:55;100737.16;;;6.16;100.00
59110;BME280;44895;47.438;18.978;2022-11-30T10:00:40;100736.09;;;6.17;100.00
59110;BME280;44895;47.438;18.978;2022-11-30T10:03:45;100731.94;;;6.49;100.00
59110;BME280;44895;47.438;18.978;2022-11-30T10:10:19;100739.19;;;6.26;100.00
59110;BME280;44895;47.438;18.978;2022-11-30T10:17:00;100734.56;;;6.44;100.00
59110;BME280;44895;47.438;18.978;2022-11-30T10:20:19;100717.06;;;6.46;100.00
59110;BME280;44895;47.438;18.978;2022-11-30T10:23:38;100707.13;;;6.52;100.00
59110;BME280;44895;47.438;18.978;2022-11-30T10:26:54;100703.38;;;6.31;100.00
59110;BME280;44895;47.438;18.978;2022-11-30T10:29:59;100705.28;;;6.35;100.00
59110;BME280;44895;47.438;18.978;2022-11-30T10:33:15;100699.97;;;6.41;100.00
59110;BME280;44895;47.438;18.978;2022-11-30T10:36:33;100702.50;;;6.47;100.00
59110;BME280;44895;47.438;18.978;2022-11-30T10:43:12;100693.25;;;6.43;100.00
59110;BME280;44895;47.438;18.978;2022-11-30T10:46:32;100695.38;;;6.63;100.00
59110;BME280;44895;47.438;18.978;2022-11-30T10:49:37;100693.94;;;6.56;100.00
59110;BME280;44895;47.438;18.978;2022-11-30T10:52:47;100702.28;;;6.76;100.00
59110;BME280;44895;47.438;18.978;2022-11-30T10:56:25;100702.19;;;6.44;100.00
59110;BME280;44895;47.438;18.978;2022-11-30T10:59:41;100684.72;;;6.51;100.00
59110;BME280;44895;47.438;18.978;2022-11-30T11:02:48;100688.44;;;6.45;100.00
59110;BME280;44895;47.438;18.978;2022-11-30T11:06:14;100687.75;;;6.55;100.00
59110;BME280;44895;47.438;18.978;2022-11-30T11:09:36;100689.88;;;6.53;100.00
59110;BME280;44895;47.438;18.978;2022-11-30T11:12:47;100701.84;;;6.62;100.00
59110;BME280;44895;47.438;18.978;2022-11-30T11:15:59;100691.56;;;6.59;100.00
59110;BME280;44895;47.438;18.978;2022-11-30T11:22:30;100688.53;;;6.56;100.00
59110;BME280;44895;47.438;18.978;2022-11-30T11:25:35;100694.31;;;6.64;100.00
59110;BME280;44895;47.438;18.978;2022-11-30T11:28:43;100691.19;;;6.73;100.00
59110;BME280;44895;47.438;18.978;2022-11-30T11:31:48;100689.19;;;6.63;100.00
59110;BME280;44895;47.438;18.978;2022-11-30T11:34:53;100696.53;;;6.45;100.00
59110;BME280;44895;47.438;18.978;2022-11-30T11:37:57;100692.63;;;6.58;100.00
59110;BME280;44895;47.438;18.978;2022-11-30T11:41:02;100691.91;;;6.90;100.00
59110;BME280;44895;47.438;18.978;2022-11-30T11:47:25;100697.53;;;7.11;100.00
59110;BME280;44895;47.438;18.978;2022-11-30T11:50:35;100703.72;;;7.11;100.00
59110;BME280;44895;47.438;18.978;2022-11-30T11:53:49;100694.19;;;7.04;100.00
59110;BME280;44895;47.438;18.978;2022-11-30T11:56:56;100692.72;;;7.18;100.00
59110;BME280;44895;47.438;18.978;2022-11-30T12:00:06;100688.63;;;7.15;100.00
59110;BME280;44895;47.438;18.978;2022-11-30T12:03:32;100675.16;;;7.21;100.00
59110;BME280;44895;47.438;18.978;2022-11-30T12:06:41;100663.25;;;7.16;100.00
59110;BME280;44895;47.438;18.978;2022-11-30T12:10:17;100664.28;;;7.10;100.00
59110;BME280;44895;47.438;18.978;2022-11-30T12:13:38;100679.34;;;7.33;100.00
59110;BME280;44895;47.438;18.978;2022-11-30T12:17:23;100661.75;;;6.98;100.00
59110;BME280;44895;47.438;18.978;2022-11-30T12:20:51;100674.06;;;7.16;100.00
59110;BME280;44895;47.438;18.978;2022-11-30T12:27:51;100660.50;;;7.11;100.00
59110;BME280;44895;47.438;18.978;2022-11-30T12:41:58;100658.59;;;7.12;100.00
59110;BME280;44895;47.438;18.978;2022-11-30T12:45:06;100661.44;;;7.22;100.00
59110;BME280;44895;47.438;18.978;2022-11-30T12:49:31;100659.63;;;7.00;100.00
59110;BME280;44895;47.438;18.978;2022-11-30T12:59:13;100643.22;;;7.45;100.00
59110;BME280;44895;47.438;18.978;2022-11-30T13:05:45;100653.94;;;7.02;100.00
59110;BME280;44895;47.438;18.978;2022-11-30T13:09:08;100656.81;;;7.23;100.00
59110;BME280;44895;47.438;18.978;2022-11-30T13:12:34;100652.66;;;7.10;100.00
59110;BME280;44895;47.438;18.978;2022-11-30T13:15:41;100648.09;;;7.15;100.00
59110;BME280;44895;47.438;18.978;2022-11-30T13:18:46;100656.97;;;7.06;100.00
59110;BME280;44895;47.438;18.978;2022-11-30T13:21:56;100650.63;;;6.95;100.00
59110;BME280;44895;47.438;18.978;2022-11-30T13:26:25;100647.72;;;7.01;100.00
59110;BME280;44895;47.438;18.978;2022-11-30T13:32:11;100660.16;;;7.02;100.00
59110;BME280;44895;47.438;18.978;2022-11-30T13:38:31;100661.34;;;6.84;100.00
59110;BME280;44895;47.438;18.978;2022-11-30T13:41:36;100666.06;;;6.72;100.00
59110;BME280;44895;47.438;18.978;2022-11-30T13:44:42;100667.22;;;6.81;100.00
59110;BME280;44895;47.438;18.978;2022-11-30T13:47:56;100670.28;;;6.90;100.00
59110;BME280;44895;47.438;18.978;2022-11-30T13:51:02;100669.78;;;6.66;100.00
59110;BME280;44895;47.438;18.978;2022-11-30T13:54:35;100677.75;;;6.78;100.00
59110;BME280;44895;47.438;18.978;2022-11-30T14:04:30;100671.03;;;6.58;100.00
59110;BME280;44895;47.438;18.978;2022-11-30T14:07:36;100675.47;;;6.69;100.00
59110;BME280;44895;47.438;18.978;2022-11-30T14:10:43;100674.31;;;6.60;100.00
59110;BME280;44895;47.438;18.978;2022-11-30T14:13:47;100672.53;;;6.71;100.00
59110;BME280;44895;47.438;18.978;2022-11-30T14:16:52;100672.03;;;6.74;100.00
59110;BME280;44895;47.438;18.978;2022-11-30T14:20:07;100682.31;;;6.77;100.00
59110;BME280;44895;47.438;18.978;2022-11-30T14:26:45;100677.38;;;6.47;100.00
59110;BME280;44895;47.438;18.978;2022-11-30T14:29:53;100680.81;;;6.42;100.00
59110;BME280;44895;47.438;18.978;2022-11-30T14:33:03;100678.06;;;6.59;100.00
59110;BME280;44895;47.438;18.978;2022-11-30T14:36:09;100669.53;;;6.45;100.00
59110;BME280;44895;47.438;18.978;2022-11-30T14:39:24;100678.00;;;6.32;100.00
59110;BME280;44895;47.438;18.978;2022-11-30T14:42:31;100671.28;;;6.34;100.00
59110;BME280;44895;47.438;18.978;2022-11-30T14:45:35;100671.06;;;6.36;100.00
59110;BME280;44895;47.438;18.978;2022-11-30T14:48:39;100663.44;;;6.33;100.00
59110;BME280;44895;47.438;18.978;2022-11-30T14:52:03;100670.47;;;6.34;100.00
59110;BME280;44895;47.438;18.978;2022-11-30T14:59:02;100667.16;;;6.27;100.00
59110;BME280;44895;47.438;18.978;2022-11-30T15:02:18;100664.50;;;6.10;100.00
59110;BME280;44895;47.438;18.978;2022-11-30T15:05:24;100657.53;;;6.14;100.00
59110;BME280;44895;47.438;18.978;2022-11-30T15:08:35;100660.31;;;6.19;100.00
59110;BME280;44895;47.438;18.978;2022-11-30T15:11:41;100661.56;;;6.11;100.00
59110;BME280;44895;47.438;18.978;2022-11-30T15:18:24;100673.91;;;6.07;100.00
59110;BME280;44895;47.438;18.978;2022-11-30T15:21:30;100662.63;;;6.10;100.00
59110;BME280;44895;47.438;18.978;2022-11-30T15:24:35;100675.09;;;6.16;100.00
59110;BME280;44895;47.438;18.978;2022-11-30T15:27:38;100673.97;;;6.12;100.00
59110;BME280;44895;47.438;18.978;2022-11-30T15:30:44;100664.78;;;6.08;100.00
59110;BME280;44895;47.438;18.978;2022-11-30T15:33:50;100670.72;;;6.10;100.00
59110;BME280;44895;47.438;18.978;2022-11-30T15:36:55;100666.38;;;6.09;100.00
59110;BME280;44895;47.438;18.978;2022-11-30T15:40:04;100665.38;;;6.15;100.00
59110;BME280;44895;47.438;18.978;2022-11-30T15:43:19;100677.66;;;6.06;100.00
59110;BME280;44895;47.438;18.978;2022-11-30T15:46:32;100672.22;;;6.01;100.00
59110;BME280;44895;47.438;18.978;2022-11-30T15:49:37;100670.97;;;5.92;100.00
59110;BME280;44895;47.438;18.978;2022-11-30T15:52:43;100668.84;;;6.11;100.00
59110;BME280;44895;47.438;18.978;2022-11-30T15:55:53;100661.44;;;6.01;100.00
59110;BME280;44895;47.438;18.978;2022-11-30T16:02:36;100672.59;;;5.93;100.00
59110;BME280;44895;47.438;18.978;2022-11-30T16:05:54;100679.25;;;6.02;100.00
59110;BME280;44895;47.438;18.978;2022-11-30T16:09:06;100673.16;;;5.95;98.33
59110;BME280;44895;47.438;18.978;2022-11-30T16:12:28;100671.13;;;5.85;97.66
59110;BME280;44895;47.438;18.978;2022-11-30T16:15:34;100653.16;;;5.91;98.12
59110;BME280;44895;47.438;18.978;2022-11-30T16:18:39;100666.56;;;5.85;95.91
59110;BME280;44895;47.438;18.978;2022-11-30T16:21:44;100660.63;;;6.00;92.50
59110;BME280;44895;47.438;18.978;2022-11-30T16:24:48;100666.91;;;5.89;95.98
59110;BME280;44895;47.438;18.978;2022-11-30T16:27:52;100654.34;;;5.78;99.42
59110;BME280;44895;47.438;18.978;2022-11-30T16:30:59;100652.97;;;5.75;100.00
59110;BME280;44895;47.438;18.978;2022-11-30T16:34:03;100649.03;;;5.83;100.00
59110;BME280;44895;47.438;18.978;2022-11-30T16:37:10;100663.69;;;5.92;100.00
59110;BME280;44895;47.438;18.978;2022-11-30T16:40:14;100653.50;;;5.77;100.00
59110;BME280;44895;47.438;18.978;2022-11-30T16:43:18;100664.09;;;5.84;100.00
59110;BME280;44895;47.438;18.978;2022-11-30T16:46:27;100671.25;;;5.73;100.00
59110;BME280;44895;47.438;18.978;2022-11-30T16:49:31;100662.16;;;5.79;100.00
59110;BME280;44895;47.438;18.978;2022-11-30T16:52:36;100661.66;;;5.82;100.00
59110;BME280;44895;47.438;18.978;2022-11-30T16:55:40;100673.50;;;5.81;100.00
59110;BME280;44895;47.438;18.978;2022-11-30T16:58:45;100668.22;;;5.69;100.00
59110;BME280;44895;47.438;18.978;2022-11-30T17:01:49;100678.69;;;5.49;100.00
59110;BME280;44895;47.438;18.978;2022-11-30T17:04:56;100676.97;;;5.60;100.00
59110;BME280;44895;47.438;18.978;2022-11-30T17:08:00;100670.19;;;5.40;100.00
59110;BME280;44895;47.438;18.978;2022-11-30T17:11:04;100670.13;;;5.35;100.00
59110;BME280;44895;47.438;18.978;2022-11-30T17:14:11;100665.53;;;5.35;100.00
59110;BME280;44895;47.438;18.978;2022-11-30T17:17:15;100659.50;;;5.28;100.00
59110;BME280;44895;47.438;18.978;2022-11-30T17:20:20;100658.19;;;4.85;100.00
59110;BME280;44895;47.438;18.978;2022-11-30T17:23:23;100665.38;;;4.79;100.00
59110;BME280;44895;47.438;18.978;2022-11-30T17:26:27;100673.38;;;4.62;100.00
59110;BME280;44895;47.438;18.978;2022-11-30T17:29:32;100672.69;;;4.67;100.00
59110;BME280;44895;47.438;18.978;2022-11-30T17:32:35;100676.38;;;4.49;100.00
59110;BME280;44895;47.438;18.978;2022-11-30T17:35:39;100679.63;;;4.51;100.00
59110;BME280;44895;47.438;18.978;2022-11-30T17:38:44;100668.69;;;4.69;100.00
59110;BME280;44895;47.438;18.978;2022-11-30T17:41:49;100692.38;;;4.55;100.00
59110;BME280;44895;47.438;18.978;2022-11-30T17:44:53;100691.22;;;4.51;100.00